sensor_id;sensor_type;location;lat;lon;timestamp;P1;durP1;ratioP1;P2;durP2;ratioP2
23232;SDS011;11785;49.500;8.288;2022-11-02T00:01:23;10.35;;;3.30;;
23232;SDS011;11785;49.500;8.288;2022-11-02T00:03:52;8.68;;;2.97;;
23232;SDS011;11785;49.500;8.288;2022-11-02T00:06:18;8.18;;;2.75;;
23232;SDS011;11785;49.500;8.288;2022-11-02T00:08:44;8.38;;;3.05;;
23232;SDS011;11785;49.500;8.288;2022-11-02T00:11:09;9.02;;;2.88;;
23232;SDS011;11785;49.500;8.288;2022-11-02T00:13:35;12.52;;;3.08;;
23232;SDS011;11785;49.500;8.288;2022-11-02T00:16:04;15.40;;;3.40;;
23232;SDS011;11785;49.500;8.288;2022-11-02T00:18:34;10.13;;;3.10;;
23232;SDS011;11785;49.500;8.288;2022-11-02T00:21:01;9.35;;;2.72;;
23232;SDS011;11785;49.500;8.288;2022-11-02T00:23:28;12.43;;;2.97;;
23232;SDS011;11785;49.500;8.288;2022-11-02T00:25:55;12.43;;;3.22;;
23232;SDS011;11785;49.500;8.288;2022-11-02T00:28:21;6.43;;;2.40;;
23232;SDS011;11785;49.500;8.288;2022-11-02T00:30:47;10.13;;;2.70;;
23232;SDS011;11785;49.500;8.288;2022-11-02T00:33:12;9.80;;;2.75;;
23232;SDS011;11785;49.500;8.288;2022-11-02T00:35:38;10.93;;;2.83;;
23232;SDS011;11785;49.500;8.288;2022-11-02T00:38:05;9.65;;;2.90;;
23232;SDS011;11785;49.500;8.288;2022-11-02T00:40:31;7.25;;;2.22;;
23232;SDS011;11785;49.500;8.288;2022-11-02T00:42:56;6.07;;;2.40;;
23232;SDS011;11785;49.500;8.288;2022-11-02T00:45:22;8.15;;;2.58;;
23232;SDS011;11785;49.500;8.288;2022-11-02T00:47:48;9.25;;;2.70;;
23232;SDS011;11785;49.500;8.288;2022-11-02T00:50:14;10.02;;;2.55;;
23232;SDS011;11785;49.500;8.288;2022-11-02T00:52:40;8.90;;;2.72;;
23232;SDS011;11785;49.500;8.288;2022-11-02T00:55:06;10.35;;;2.50;;
23232;SDS011;11785;49.500;8.288;2022-11-02T00:57:33;9.07;;;2.47;;
23232;SDS011;11785;49.500;8.288;2022-11-02T00:59:59;9.77;;;2.53;;
23232;SDS011;11785;49.500;8.288;2022-11-02T01:02:25;11.70;;;2.20;;
23232;SDS011;11785;49.500;8.288;2022-11-02T01:04:51;8.85;;;2.53;;
23232;SDS011;11785;49.500;8.288;2022-11-02T01:07:16;4.93;;;1.88;;
23232;SDS011;11785;49.500;8.288;2022-11-02T01:09:42;12.88;;;2.38;;
23232;SDS011;11785;49.500;8.288;2022-11-02T01:12:08;7.18;;;2.08;;
23232;SDS011;11785;49.500;8.288;2022-11-02T01:14:33;7.82;;;2.53;;
23232;SDS011;11785;49.500;8.288;2022-11-02T01:16:59;10.02;;;2.60;;
23232;SDS011;11785;49.500;8.288;2022-11-02T01:19:25;5.88;;;1.98;;
23232;SDS011;11785;49.500;8.288;2022-11-02T01:21:51;13.23;;;2.40;;
23232;SDS011;11785;49.500;8.288;2022-11-02T01:24:16;9.07;;;2.30;;
23232;SDS011;11785;49.500;8.288;2022-11-02T01:26:42;8.20;;;1.90;;
23232;SDS011;11785;49.500;8.288;2022-11-02T01:29:07;10.77;;;2.25;;
23232;SDS011;11785;49.500;8.288;2022-11-02T01:31:33;8.75;;;2.20;;
23232;SDS011;11785;49.500;8.288;2022-11-02T01:33:59;9.05;;;2.28;;
23232;SDS011;11785;49.500;8.288;2022-11-02T01:36:24;9.00;;;1.90;;
23232;SDS011;11785;49.500;8.288;2022-11-02T01:38:50;4.18;;;1.77;;
23232;SDS011;11785;49.500;8.288;2022-11-02T01:41:16;10.60;;;2.10;;
23232;SDS011;11785;49.500;8.288;2022-11-02T01:43:42;9.68;;;1.73;;
23232;SDS011;11785;49.500;8.288;2022-11-02T01:48:40;6.60;;;1.90;;
23232;SDS011;11785;49.500;8.288;2022-11-02T01:51:15;8.90;;;2.10;;
23232;SDS011;11785;49.500;8.288;2022-11-02T01:54:09;7.60;;;2.15;;
23232;SDS011;11785;49.500;8.288;2022-11-02T01:56:38;6.03;;;2.20;;
23232;SDS011;11785;49.500;8.288;2022-11-02T01:59:06;6.72;;;2.17;;
23232;SDS011;11785;49.500;8.288;2022-11-02T02:01:36;8.93;;;2.20;;
23232;SDS011;11785;49.500;8.288;2022-11-02T02:04:02;10.73;;;2.28;;
23232;SDS011;11785;49.500;8.288;2022-11-02T02:06:29;7.68;;;2.38;;
23232;SDS011;11785;49.500;8.288;2022-11-02T02:08:55;10.50;;;2.53;;
23232;SDS011;11785;49.500;8.288;2022-11-02T02:11:27;11.52;;;2.42;;
23232;SDS011;11785;49.500;8.288;2022-11-02T02:13:56;8.10;;;2.17;;
23232;SDS011;11785;49.500;8.288;2022-11-02T02:16:33;10.98;;;2.40;;
23232;SDS011;11785;49.500;8.288;2022-11-02T02:19:18;12.48;;;2.72;;
23232;SDS011;11785;49.500;8.288;2022-11-02T02:21:57;10.45;;;2.22;;
23232;SDS011;11785;49.500;8.288;2022-11-02T02:24:38;11.63;;;2.55;;
23232;SDS011;11785;49.500;8.288;2022-11-02T02:30:16;6.25;;;2.40;;
23232;SDS011;11785;49.500;8.288;2022-11-02T02:33:19;6.68;;;2.50;;
23232;SDS011;11785;49.500;8.288;2022-11-02T02:38:26;5.38;;;2.55;;
23232;SDS011;11785;49.500;8.288;2022-11-02T02:43:43;9.73;;;2.78;;
23232;SDS011;11785;49.500;8.288;2022-11-02T02:48:47;13.63;;;2.63;;
23232;SDS011;11785;49.500;8.288;2022-11-02T02:51:21;7.20;;;2.70;;
23232;SDS011;11785;49.500;8.288;2022-11-02T02:54:15;13.88;;;2.60;;
23232;SDS011;11785;49.500;8.288;2022-11-02T02:56:47;9.18;;;3.20;;
23232;SDS011;11785;49.500;8.288;2022-11-02T02:59:23;10.10;;;2.45;;
23232;SDS011;11785;49.500;8.288;2022-11-02T03:01:55;12.90;;;3.00;;
23232;SDS011;11785;49.500;8.288;2022-11-02T03:04:22;10.38;;;2.70;;
23232;SDS011;11785;49.500;8.288;2022-11-02T03:06:50;13.85;;;2.80;;
23232;SDS011;11785;49.500;8.288;2022-11-02T03:09:25;11.98;;;2.50;;
23232;SDS011;11785;49.500;8.288;2022-11-02T03:21:14;10.13;;;3.05;;
23232;SDS011;11785;49.500;8.288;2022-11-02T03:23:32;6.30;;;2.20;;
23232;SDS011;11785;49.500;8.288;2022-11-02T03:28:59;13.23;;;2.67;;
23232;SDS011;11785;49.500;8.288;2022-11-02T03:31:30;10.45;;;3.13;;
23232;SDS011;11785;49.500;8.288;2022-11-02T03:36:53;8.18;;;2.60;;
23232;SDS011;11785;49.500;8.288;2022-11-02T03:39:37;6.10;;;2.55;;
23232;SDS011;11785;49.500;8.288;2022-11-02T03:42:11;7.63;;;2.40;;
23232;SDS011;11785;49.500;8.288;2022-11-02T03:44:41;7.95;;;2.25;;
23232;SDS011;11785;49.500;8.288;2022-11-02T03:47:09;8.13;;;2.42;;
23232;SDS011;11785;49.500;8.288;2022-11-02T03:49:37;11.27;;;2.33;;
23232;SDS011;11785;49.500;8.288;2022-11-02T03:52:05;7.32;;;2.60;;
23232;SDS011;11785;49.500;8.288;2022-11-02T03:57:02;8.10;;;2.30;;
23232;SDS011;11785;49.500;8.288;2022-11-02T03:59:31;12.13;;;2.92;;
23232;SDS011;11785;49.500;8.288;2022-11-02T04:01:57;5.32;;;2.15;;
23232;SDS011;11785;49.500;8.288;2022-11-02T04:04:23;10.93;;;2.50;;
23232;SDS011;11785;49.500;8.288;2022-11-02T04:06:49;8.25;;;2.95;;
23232;SDS011;11785;49.500;8.288;2022-11-02T04:09:16;11.05;;;2.40;;
23232;SDS011;11785;49.500;8.288;2022-11-02T04:11:42;18.08;;;6.40;;
23232;SDS011;11785;49.500;8.288;2022-11-02T04:14:26;10.45;;;3.33;;
23232;SDS011;11785;49.500;8.288;2022-11-02T04:17:05;11.77;;;2.63;;
23232;SDS011;11785;49.500;8.288;2022-11-02T04:19:53;10.10;;;3.20;;
23232;SDS011;11785;49.500;8.288;2022-11-02T04:22:18;12.20;;;3.05;;
23232;SDS011;11785;49.500;8.288;2022-11-02T04:25:03;16.33;;;4.05;;
23232;SDS011;11785;49.500;8.288;2022-11-02T04:27:49;8.45;;;2.90;;
23232;SDS011;11785;49.500;8.288;2022-11-02T04:30:16;12.57;;;3.10;;
23232;SDS011;11785;49.500;8.288;2022-11-02T04:32:44;5.78;;;2.30;;
23232;SDS011;11785;49.500;8.288;2022-11-02T04:35:29;9.50;;;2.28;;
23232;SDS011;11785;49.500;8.288;2022-11-02T04:37:56;9.00;;;2.17;;
23232;SDS011;11785;49.500;8.288;2022-11-02T04:40:40;13.80;;;2.47;;
23232;SDS011;11785;49.500;8.288;2022-11-02T04:43:06;7.15;;;1.67;;
23232;SDS011;11785;49.500;8.288;2022-11-02T04:45:32;7.95;;;1.98;;
23232;SDS011;11785;49.500;8.288;2022-11-02T04:47:59;7.15;;;1.77;;
23232;SDS011;11785;49.500;8.288;2022-11-02T04:50:25;8.65;;;1.60;;
23232;SDS011;11785;49.500;8.288;2022-11-02T04:52:55;14.00;;;2.03;;
23232;SDS011;11785;49.500;8.288;2022-11-02T04:55:21;6.90;;;1.80;;
23232;SDS011;11785;49.500;8.288;2022-11-02T04:57:46;11.10;;;2.00;;
23232;SDS011;11785;49.500;8.288;2022-11-02T05:00:12;3.97;;;1.38;;
23232;SDS011;11785;49.500;8.288;2022-11-02T05:02:39;9.52;;;1.52;;
23232;SDS011;11785;49.500;8.288;2022-11-02T05:05:05;9.55;;;1.88;;
23232;SDS011;11785;49.500;8.288;2022-11-02T05:07:31;10.10;;;1.67;;
23232;SDS011;11785;49.500;8.288;2022-11-02T05:09:56;8.13;;;2.05;;
23232;SDS011;11785;49.500;8.288;2022-11-02T05:12:22;5.75;;;1.35;;
23232;SDS011;11785;49.500;8.288;2022-11-02T05:14:47;8.80;;;1.65;;
23232;SDS011;11785;49.500;8.288;2022-11-02T05:17:13;6.20;;;2.05;;
23232;SDS011;11785;49.500;8.288;2022-11-02T05:19:40;7.03;;;1.52;;
23232;SDS011;11785;49.500;8.288;2022-11-02T05:22:06;7.55;;;1.73;;
23232;SDS011;11785;49.500;8.288;2022-11-02T05:24:31;16.67;;;1.95;;
23232;SDS011;11785;49.500;8.288;2022-11-02T05:26:57;10.05;;;1.50;;
23232;SDS011;11785;49.500;8.288;2022-11-02T05:29:24;8.75;;;2.22;;
23232;SDS011;11785;49.500;8.288;2022-11-02T05:31:50;6.10;;;1.48;;
23232;SDS011;11785;49.500;8.288;2022-11-02T05:34:16;9.35;;;1.77;;
23232;SDS011;11785;49.500;8.288;2022-11-02T05:36:41;5.63;;;1.70;;
23232;SDS011;11785;49.500;8.288;2022-11-02T05:39:07;9.25;;;1.85;;
23232;SDS011;11785;49.500;8.288;2022-11-02T05:41:33;10.88;;;2.05;;
23232;SDS011;11785;49.500;8.288;2022-11-02T05:43:58;9.35;;;2.10;;
23232;SDS011;11785;49.500;8.288;2022-11-02T05:46:24;11.18;;;1.90;;
23232;SDS011;11785;49.500;8.288;2022-11-02T05:48:50;9.98;;;1.90;;
23232;SDS011;11785;49.500;8.288;2022-11-02T05:51:15;9.30;;;2.42;;
23232;SDS011;11785;49.500;8.288;2022-11-02T05:53:41;11.93;;;2.28;;
23232;SDS011;11785;49.500;8.288;2022-11-02T05:56:08;7.32;;;1.90;;
23232;SDS011;11785;49.500;8.288;2022-11-02T05:58:34;7.18;;;1.63;;
23232;SDS011;11785;49.500;8.288;2022-11-02T06:01:01;11.30;;;2.00;;
23232;SDS011;11785;49.500;8.288;2022-11-02T06:03:29;10.00;;;1.92;;
23232;SDS011;11785;49.500;8.288;2022-11-02T06:05:59;9.52;;;1.85;;
23232;SDS011;11785;49.500;8.288;2022-11-02T06:08:27;11.38;;;2.17;;
23232;SDS011;11785;49.500;8.288;2022-11-02T06:10:55;8.63;;;2.20;;
23232;SDS011;11785;49.500;8.288;2022-11-02T06:13:20;7.05;;;1.38;;
23232;SDS011;11785;49.500;8.288;2022-11-02T06:15:46;16.65;;;2.17;;
23232;SDS011;11785;49.500;8.288;2022-11-02T06:18:11;9.15;;;1.88;;
23232;SDS011;11785;49.500;8.288;2022-11-02T06:20:37;5.45;;;1.48;;
23232;SDS011;11785;49.500;8.288;2022-11-02T06:23:03;8.95;;;1.60;;
23232;SDS011;11785;49.500;8.288;2022-11-02T06:25:28;11.23;;;2.03;;
23232;SDS011;11785;49.500;8.288;2022-11-02T06:27:54;10.75;;;1.58;;
23232;SDS011;11785;49.500;8.288;2022-11-02T06:30:24;5.40;;;1.55;;
23232;SDS011;11785;49.500;8.288;2022-11-02T06:32:50;9.35;;;1.70;;
23232;SDS011;11785;49.500;8.288;2022-11-02T06:35:18;8.00;;;1.92;;
23232;SDS011;11785;49.500;8.288;2022-11-02T06:37:45;8.93;;;2.28;;
23232;SDS011;11785;49.500;8.288;2022-11-02T06:40:11;8.77;;;1.50;;
23232;SDS011;11785;49.500;8.288;2022-11-02T06:42:37;8.40;;;1.80;;
23232;SDS011;11785;49.500;8.288;2022-11-02T06:45:04;8.95;;;2.13;;
23232;SDS011;11785;49.500;8.288;2022-11-02T06:47:31;9.60;;;1.63;;
23232;SDS011;11785;49.500;8.288;2022-11-02T06:49:58;9.30;;;1.88;;
23232;SDS011;11785;49.500;8.288;2022-11-02T06:52:24;8.75;;;1.67;;
23232;SDS011;11785;49.500;8.288;2022-11-02T06:54:50;9.95;;;2.50;;
23232;SDS011;11785;49.500;8.288;2022-11-02T06:57:16;7.68;;;1.48;;
23232;SDS011;11785;49.500;8.288;2022-11-02T06:59:42;12.02;;;2.00;;
23232;SDS011;11785;49.500;8.288;2022-11-02T07:02:07;7.65;;;1.65;;
23232;SDS011;11785;49.500;8.288;2022-11-02T07:04:33;11.07;;;2.42;;
23232;SDS011;11785;49.500;8.288;2022-11-02T07:06:59;8.10;;;1.73;;
23232;SDS011;11785;49.500;8.288;2022-11-02T07:09:24;10.18;;;1.73;;
23232;SDS011;11785;49.500;8.288;2022-11-02T07:11:50;8.63;;;1.85;;
23232;SDS011;11785;49.500;8.288;2022-11-02T07:14:18;13.05;;;1.90;;
23232;SDS011;11785;49.500;8.288;2022-11-02T07:16:43;7.25;;;1.88;;
23232;SDS011;11785;49.500;8.288;2022-11-02T07:19:09;7.72;;;1.65;;
23232;SDS011;11785;49.500;8.288;2022-11-02T07:21:35;5.43;;;1.45;;
23232;SDS011;11785;49.500;8.288;2022-11-02T07:24:00;8.45;;;1.95;;
23232;SDS011;11785;49.500;8.288;2022-11-02T07:26:26;8.93;;;1.90;;
23232;SDS011;11785;49.500;8.288;2022-11-02T07:28:52;9.52;;;1.48;;
23232;SDS011;11785;49.500;8.288;2022-11-02T07:31:18;9.35;;;1.50;;
23232;SDS011;11785;49.500;8.288;2022-11-02T07:33:43;6.28;;;1.58;;
23232;SDS011;11785;49.500;8.288;2022-11-02T07:36:09;7.47;;;1.80;;
23232;SDS011;11785;49.500;8.288;2022-11-02T07:38:34;8.07;;;1.83;;
23232;SDS011;11785;49.500;8.288;2022-11-02T07:41:00;9.57;;;2.20;;
23232;SDS011;11785;49.500;8.288;2022-11-02T07:43:26;7.10;;;1.70;;
23232;SDS011;11785;49.500;8.288;2022-11-02T07:45:51;12.27;;;2.30;;
23232;SDS011;11785;49.500;8.288;2022-11-02T07:48:17;9.98;;;1.50;;
23232;SDS011;11785;49.500;8.288;2022-11-02T07:50:42;9.18;;;1.90;;
23232;SDS011;11785;49.500;8.288;2022-11-02T07:53:08;8.95;;;1.70;;
23232;SDS011;11785;49.500;8.288;2022-11-02T07:55:36;7.85;;;1.65;;
23232;SDS011;11785;49.500;8.288;2022-11-02T07:58:06;8.70;;;1.58;;
23232;SDS011;11785;49.500;8.288;2022-11-02T08:00:35;7.60;;;2.03;;
23232;SDS011;11785;49.500;8.288;2022-11-02T08:03:03;8.13;;;2.03;;
23232;SDS011;11785;49.500;8.288;2022-11-02T08:05:30;8.50;;;1.63;;
23232;SDS011;11785;49.500;8.288;2022-11-02T08:07:58;7.53;;;2.50;;
23232;SDS011;11785;49.500;8.288;2022-11-02T08:10:26;12.68;;;2.00;;
23232;SDS011;11785;49.500;8.288;2022-11-02T08:12:53;9.00;;;1.75;;
23232;SDS011;11785;49.500;8.288;2022-11-02T08:15:19;6.72;;;1.70;;
23232;SDS011;11785;49.500;8.288;2022-11-02T08:17:45;7.38;;;1.73;;
23232;SDS011;11785;49.500;8.288;2022-11-02T08:20:10;8.40;;;1.58;;
23232;SDS011;11785;49.500;8.288;2022-11-02T08:22:36;11.00;;;1.67;;
23232;SDS011;11785;49.500;8.288;2022-11-02T08:25:03;14.18;;;1.90;;
23232;SDS011;11785;49.500;8.288;2022-11-02T08:27:29;11.50;;;1.67;;
23232;SDS011;11785;49.500;8.288;2022-11-02T08:29:55;10.07;;;2.03;;
23232;SDS011;11785;49.500;8.288;2022-11-02T08:32:20;12.70;;;1.95;;
23232;SDS011;11785;49.500;8.288;2022-11-02T08:34:46;8.98;;;2.55;;
23232;SDS011;11785;49.500;8.288;2022-11-02T08:37:11;13.55;;;2.38;;
23232;SDS011;11785;49.500;8.288;2022-11-02T08:39:37;7.13;;;1.70;;
23232;SDS011;11785;49.500;8.288;2022-11-02T08:42:03;12.10;;;2.13;;
23232;SDS011;11785;49.500;8.288;2022-11-02T08:44:28;9.13;;;1.67;;
23232;SDS011;11785;49.500;8.288;2022-11-02T08:46:54;6.72;;;1.90;;
23232;SDS011;11785;49.500;8.288;2022-11-02T08:49:20;6.93;;;1.55;;
23232;SDS011;11785;49.500;8.288;2022-11-02T08:51:46;9.75;;;2.10;;
23232;SDS011;11785;49.500;8.288;2022-11-02T08:54:11;11.07;;;2.05;;
23232;SDS011;11785;49.500;8.288;2022-11-02T08:56:37;7.07;;;1.73;;
23232;SDS011;11785;49.500;8.288;2022-11-02T08:59:03;10.50;;;2.65;;
23232;SDS011;11785;49.500;8.288;2022-11-02T09:01:29;7.57;;;2.33;;
23232;SDS011;11785;49.500;8.288;2022-11-02T09:03:54;9.38;;;1.63;;
23232;SDS011;11785;49.500;8.288;2022-11-02T09:06:20;11.05;;;1.90;;
23232;SDS011;11785;49.500;8.288;2022-11-02T09:08:45;11.05;;;1.80;;
23232;SDS011;11785;49.500;8.288;2022-11-02T09:11:11;13.93;;;2.15;;
23232;SDS011;11785;49.500;8.288;2022-11-02T09:13:37;12.20;;;1.98;;
23232;SDS011;11785;49.500;8.288;2022-11-02T09:16:03;9.50;;;2.17;;
23232;SDS011;11785;49.500;8.288;2022-11-02T09:18:29;9.27;;;1.60;;
23232;SDS011;11785;49.500;8.288;2022-11-02T09:20:55;9.82;;;1.98;;
23232;SDS011;11785;49.500;8.288;2022-11-02T09:23:21;13.50;;;1.90;;
23232;SDS011;11785;49.500;8.288;2022-11-02T09:25:47;11.63;;;1.70;;
23232;SDS011;11785;49.500;8.288;2022-11-02T09:28:13;13.90;;;1.98;;
23232;SDS011;11785;49.500;8.288;2022-11-02T09:30:39;14.15;;;2.47;;
23232;SDS011;11785;49.500;8.288;2022-11-02T09:33:06;10.50;;;1.90;;
23232;SDS011;11785;49.500;8.288;2022-11-02T09:35:36;17.75;;;1.92;;
23232;SDS011;11785;49.500;8.288;2022-11-02T09:38:03;9.88;;;2.55;;
23232;SDS011;11785;49.500;8.288;2022-11-02T09:40:30;13.75;;;3.15;;
23232;SDS011;11785;49.500;8.288;2022-11-02T09:43:05;9.18;;;1.85;;
23232;SDS011;11785;49.500;8.288;2022-11-02T09:45:41;9.98;;;1.55;;
23232;SDS011;11785;49.500;8.288;2022-11-02T09:48:20;13.15;;;1.95;;
23232;SDS011;11785;49.500;8.288;2022-11-02T09:50:52;8.77;;;1.98;;
23232;SDS011;11785;49.500;8.288;2022-11-02T09:53:26;10.18;;;2.35;;
23232;SDS011;11785;49.500;8.288;2022-11-02T09:55:58;10.40;;;1.88;;
23232;SDS011;11785;49.500;8.288;2022-11-02T09:58:27;12.18;;;2.05;;
23232;SDS011;11785;49.500;8.288;2022-11-02T10:00:58;9.60;;;2.22;;
23232;SDS011;11785;49.500;8.288;2022-11-02T10:03:46;11.18;;;2.35;;
23232;SDS011;11785;49.500;8.288;2022-11-02T10:06:20;10.63;;;2.63;;
23232;SDS011;11785;49.500;8.288;2022-11-02T10:08:48;7.78;;;1.77;;
23232;SDS011;11785;49.500;8.288;2022-11-02T10:11:41;15.93;;;2.58;;
23232;SDS011;11785;49.500;8.288;2022-11-02T10:14:20;9.85;;;2.20;;
23232;SDS011;11785;49.500;8.288;2022-11-02T10:16:52;13.68;;;2.25;;
23232;SDS011;11785;49.500;8.288;2022-11-02T10:19:23;17.27;;;2.10;;
23232;SDS011;11785;49.500;8.288;2022-11-02T10:21:50;14.60;;;2.03;;
23232;SDS011;11785;49.500;8.288;2022-11-02T10:24:30;12.27;;;1.70;;
23232;SDS011;11785;49.500;8.288;2022-11-02T10:27:11;8.82;;;2.40;;
23232;SDS011;11785;49.500;8.288;2022-11-02T10:32:15;11.25;;;2.00;;
23232;SDS011;11785;49.500;8.288;2022-11-02T10:34:41;9.77;;;1.88;;
23232;SDS011;11785;49.500;8.288;2022-11-02T10:51:17;6.15;;;1.85;;
23232;SDS011;11785;49.500;8.288;2022-11-02T10:53:44;8.07;;;1.48;;
23232;SDS011;11785;49.500;8.288;2022-11-02T10:56:14;6.40;;;1.42;;
23232;SDS011;11785;49.500;8.288;2022-11-02T11:01:37;10.52;;;1.95;;
23232;SDS011;11785;49.500;8.288;2022-11-02T11:04:28;12.60;;;1.83;;
23232;SDS011;11785;49.500;8.288;2022-11-02T11:06:55;5.93;;;1.52;;
23232;SDS011;11785;49.500;8.288;2022-11-02T11:09:23;8.32;;;1.35;;
23232;SDS011;11785;49.500;8.288;2022-11-02T11:12:06;7.10;;;1.50;;
23232;SDS011;11785;49.500;8.288;2022-11-02T11:14:48;8.75;;;1.65;;
23232;SDS011;11785;49.500;8.288;2022-11-02T11:17:18;9.70;;;1.42;;
23232;SDS011;11785;49.500;8.288;2022-11-02T11:19:51;7.80;;;1.95;;
23232;SDS011;11785;49.500;8.288;2022-11-02T11:22:29;8.45;;;1.50;;
23232;SDS011;11785;49.500;8.288;2022-11-02T11:27:50;11.93;;;1.83;;
23232;SDS011;11785;49.500;8.288;2022-11-02T11:33:00;11.90;;;2.03;;
23232;SDS011;11785;49.500;8.288;2022-11-02T11:35:35;4.28;;;1.10;;
23232;SDS011;11785;49.500;8.288;2022-11-02T11:38:04;10.18;;;1.40;;
23232;SDS011;11785;49.500;8.288;2022-11-02T11:40:35;8.88;;;1.52;;
23232;SDS011;11785;49.500;8.288;2022-11-02T11:43:02;9.15;;;2.00;;
23232;SDS011;11785;49.500;8.288;2022-11-02T11:45:34;11.90;;;1.73;;
23232;SDS011;11785;49.500;8.288;2022-11-02T11:48:05;5.25;;;1.17;;
23232;SDS011;11785;49.500;8.288;2022-11-02T11:50:48;4.43;;;1.10;;
23232;SDS011;11785;49.500;8.288;2022-11-02T11:53:21;7.35;;;1.30;;
23232;SDS011;11785;49.500;8.288;2022-11-02T11:55:48;7.15;;;1.33;;
23232;SDS011;11785;49.500;8.288;2022-11-02T11:58:20;7.88;;;1.45;;
23232;SDS011;11785;49.500;8.288;2022-11-02T12:03:32;6.63;;;1.42;;
23232;SDS011;11785;49.500;8.288;2022-11-02T12:06:22;6.18;;;1.30;;
23232;SDS011;11785;49.500;8.288;2022-11-02T12:11:50;12.02;;;1.88;;
23232;SDS011;11785;49.500;8.288;2022-11-02T12:14:29;8.65;;;1.73;;
23232;SDS011;11785;49.500;8.288;2022-11-02T12:30:58;6.80;;;1.67;;
23232;SDS011;11785;49.500;8.288;2022-11-02T12:33:54;6.22;;;1.20;;
23232;SDS011;11785;49.500;8.288;2022-11-02T12:44:56;5.75;;;1.50;;
23232;SDS011;11785;49.500;8.288;2022-11-02T12:52:47;4.45;;;1.10;;
23232;SDS011;11785;49.500;8.288;2022-11-02T12:55:24;5.38;;;1.42;;
23232;SDS011;11785;49.500;8.288;2022-11-02T12:57:58;8.23;;;1.73;;
23232;SDS011;11785;49.500;8.288;2022-11-02T13:00:37;6.03;;;1.35;;
23232;SDS011;11785;49.500;8.288;2022-11-02T13:03:16;4.28;;;1.17;;
23232;SDS011;11785;49.500;8.288;2022-11-02T13:06:03;8.07;;;1.52;;
23232;SDS011;11785;49.500;8.288;2022-11-02T13:08:55;6.07;;;1.42;;
23232;SDS011;11785;49.500;8.288;2022-11-02T13:14:11;4.88;;;1.50;;
23232;SDS011;11785;49.500;8.288;2022-11-02T13:16:48;9.90;;;1.27;;
23232;SDS011;11785;49.500;8.288;2022-11-02T13:19:25;9.43;;;1.60;;
23232;SDS011;11785;49.500;8.288;2022-11-02T13:21:57;11.98;;;1.60;;
23232;SDS011;11785;49.500;8.288;2022-11-02T13:24:29;7.47;;;1.52;;
23232;SDS011;11785;49.500;8.288;2022-11-02T13:27:03;8.38;;;1.42;;
23232;SDS011;11785;49.500;8.288;2022-11-02T13:29:40;6.65;;;1.13;;
23232;SDS011;11785;49.500;8.288;2022-11-02T13:34:51;6.00;;;1.33;;
23232;SDS011;11785;49.500;8.288;2022-11-02T13:37:32;6.53;;;1.70;;
23232;SDS011;11785;49.500;8.288;2022-11-02T13:48:17;6.22;;;1.35;;
23232;SDS011;11785;49.500;8.288;2022-11-02T13:50:48;6.85;;;1.70;;
23232;SDS011;11785;49.500;8.288;2022-11-02T13:53:21;8.23;;;1.45;;
23232;SDS011;11785;49.500;8.288;2022-11-02T13:55:53;4.43;;;1.45;;
23232;SDS011;11785;49.500;8.288;2022-11-02T13:58:26;8.00;;;1.20;;
23232;SDS011;11785;49.500;8.288;2022-11-02T14:00:59;6.35;;;1.30;;
23232;SDS011;11785;49.500;8.288;2022-11-02T14:05:58;7.53;;;1.40;;
23232;SDS011;11785;49.500;8.288;2022-11-02T14:08:32;5.93;;;1.33;;
23232;SDS011;11785;49.500;8.288;2022-11-02T14:22:24;5.00;;;1.10;;
23232;SDS011;11785;49.500;8.288;2022-11-02T14:46:37;4.03;;;1.02;;
23232;SDS011;11785;49.500;8.288;2022-11-02T14:49:14;3.70;;;1.20;;
23232;SDS011;11785;49.500;8.288;2022-11-02T14:51:44;3.90;;;1.25;;
23232;SDS011;11785;49.500;8.288;2022-11-02T14:54:18;5.22;;;1.02;;
23232;SDS011;11785;49.500;8.288;2022-11-02T14:56:55;4.90;;;1.08;;
23232;SDS011;11785;49.500;8.288;2022-11-02T14:59:37;7.63;;;1.30;;
23232;SDS011;11785;49.500;8.288;2022-11-02T15:02:18;7.47;;;1.52;;
23232;SDS011;11785;49.500;8.288;2022-11-02T15:04:57;3.95;;;0.90;;
23232;SDS011;11785;49.500;8.288;2022-11-02T15:07:30;7.32;;;1.45;;
23232;SDS011;11785;49.500;8.288;2022-11-02T15:12:47;8.88;;;1.50;;
23232;SDS011;11785;49.500;8.288;2022-11-02T15:15:24;4.22;;;1.20;;
23232;SDS011;11785;49.500;8.288;2022-11-02T15:17:58;6.85;;;1.30;;
23232;SDS011;11785;49.500;8.288;2022-11-02T15:20:43;6.03;;;1.00;;
23232;SDS011;11785;49.500;8.288;2022-11-02T15:25:48;5.03;;;1.33;;
23232;SDS011;11785;49.500;8.288;2022-11-02T15:28:21;6.15;;;1.40;;
23232;SDS011;11785;49.500;8.288;2022-11-02T15:30:58;4.80;;;1.27;;
23232;SDS011;11785;49.500;8.288;2022-11-02T15:36:04;4.43;;;1.45;;
23232;SDS011;11785;49.500;8.288;2022-11-02T15:38:32;6.95;;;1.42;;
23232;SDS011;11785;49.500;8.288;2022-11-02T15:41:03;8.05;;;1.42;;
23232;SDS011;11785;49.500;8.288;2022-11-02T15:47:03;4.07;;;1.10;;
23232;SDS011;11785;49.500;8.288;2022-11-02T15:52:29;6.00;;;2.10;;
23232;SDS011;11785;49.500;8.288;2022-11-02T15:55:14;7.45;;;2.00;;
23232;SDS011;11785;49.500;8.288;2022-11-02T15:57:56;7.25;;;1.30;;
23232;SDS011;11785;49.500;8.288;2022-11-02T16:00:29;9.10;;;1.50;;
23232;SDS011;11785;49.500;8.288;2022-11-02T16:02:58;5.45;;;1.30;;
23232;SDS011;11785;49.500;8.288;2022-11-02T16:05:28;5.57;;;1.33;;
23232;SDS011;11785;49.500;8.288;2022-11-02T16:07:57;10.18;;;2.45;;
23232;SDS011;11785;49.500;8.288;2022-11-02T16:10:27;12.07;;;4.00;;
23232;SDS011;11785;49.500;8.288;2022-11-02T16:12:55;11.93;;;4.07;;
23232;SDS011;11785;49.500;8.288;2022-11-02T16:15:25;13.85;;;3.35;;
23232;SDS011;11785;49.500;8.288;2022-11-02T16:17:52;8.70;;;3.08;;
23232;SDS011;11785;49.500;8.288;2022-11-02T16:22:49;5.45;;;1.55;;
23232;SDS011;11785;49.500;8.288;2022-11-02T16:25:28;6.50;;;1.57;;
23232;SDS011;11785;49.500;8.288;2022-11-02T16:28:42;7.72;;;1.70;;
23232;SDS011;11785;49.500;8.288;2022-11-02T16:33:36;10.25;;;1.63;;
23232;SDS011;11785;49.500;8.288;2022-11-02T16:36:06;4.97;;;1.45;;
23232;SDS011;11785;49.500;8.288;2022-11-02T16:38:34;9.15;;;1.73;;
23232;SDS011;11785;49.500;8.288;2022-11-02T16:41:02;10.77;;;2.13;;
23232;SDS011;11785;49.500;8.288;2022-11-02T16:43:31;5.68;;;1.88;;
23232;SDS011;11785;49.500;8.288;2022-11-02T16:45:58;7.28;;;2.10;;
23232;SDS011;11785;49.500;8.288;2022-11-02T16:48:26;7.57;;;2.63;;
23232;SDS011;11785;49.500;8.288;2022-11-02T16:51:03;10.73;;;2.40;;
23232;SDS011;11785;49.500;8.288;2022-11-02T16:53:49;11.73;;;1.95;;
23232;SDS011;11785;49.500;8.288;2022-11-02T16:56:26;13.38;;;1.70;;
23232;SDS011;11785;49.500;8.288;2022-11-02T16:58:56;11.20;;;1.92;;
23232;SDS011;11785;49.500;8.288;2022-11-02T17:01:25;12.68;;;1.85;;
23232;SDS011;11785;49.500;8.288;2022-11-02T17:04:22;10.18;;;1.83;;
23232;SDS011;11785;49.500;8.288;2022-11-02T17:06:50;5.90;;;1.98;;
23232;SDS011;11785;49.500;8.288;2022-11-02T17:11:52;9.20;;;1.80;;
23232;SDS011;11785;49.500;8.288;2022-11-02T17:14:19;14.40;;;2.22;;
23232;SDS011;11785;49.500;8.288;2022-11-02T17:16:57;9.15;;;2.25;;
23232;SDS011;11785;49.500;8.288;2022-11-02T17:22:26;12.02;;;2.30;;
23232;SDS011;11785;49.500;8.288;2022-11-02T17:25:02;10.32;;;2.05;;
23232;SDS011;11785;49.500;8.288;2022-11-02T17:30:00;18.30;;;4.38;;
23232;SDS011;11785;49.500;8.288;2022-11-02T17:32:25;9.00;;;2.85;;
23232;SDS011;11785;49.500;8.288;2022-11-02T17:34:53;6.65;;;2.25;;
23232;SDS011;11785;49.500;8.288;2022-11-02T17:37:27;13.98;;;2.72;;
23232;SDS011;11785;49.500;8.288;2022-11-02T17:39:54;12.60;;;2.55;;
23232;SDS011;11785;49.500;8.288;2022-11-02T17:42:23;9.05;;;2.40;;
23232;SDS011;11785;49.500;8.288;2022-11-02T17:47:49;10.98;;;2.83;;
23232;SDS011;11785;49.500;8.288;2022-11-02T17:50:16;10.32;;;2.50;;